Time;durP1;ratioP1;P1;durP2;ratioP2;P2;SDS_P1;SDS_P2;PMS_P1;PMS_P2;Temp;Humidity;BMP_temperature;BMP_pressure;BME280_temperature;BME280_humidity;BME280_pressure;Samples;Min_cycle;Max_cycle;Signal;HPM_P1;HPM_P2
2022/07/17 00:00:42;;;;;;;;;;;;;;;;;;5036894;28;19926;-29
2022/07/17 00:03:08;;;;;;;;;;;;;;;;;;5036869;28;20003;-30
2022/07/17 00:05:34;;;;;;;;;;;;;;;;;;5036592;28;19921;-29
2022/07/17 00:08:00;;;;;;;;;;;;;;;;;;5035813;28;19992;-28
2022/07/17 00:10:26;;;;;;;;;;;;;;;;;;5036780;28;20344;-30
2022/07/17 00:12:52;;;;;;;;;;;;;;;;;;5036741;28;19917;-29
2022/07/17 00:15:19;;;;;;;;;;;;;;;;;;5036715;28;19949;-29
2022/07/17 00:17:45;;;;;;;;;;;;;;;;;;5036566;28;19913;-29
2022/07/17 00:20:11;;;;;;;;;;;;;;;;;;5036511;28;19967;-29
2022/07/17 00:22:37;;;;;;;;;;;;;;;;;;5035671;28;19916;-29
2022/07/17 00:25:03;;;;;;;;;;;;;;;;;;5036738;28;19921;-29
2022/07/17 00:27:29;;;;;;;;;;;;;;;;;;5036367;28;19970;-29
2022/07/17 00:29:55;;;;;;;;;;;;;;;;;;5036335;28;20327;-29
2022/07/17 00:32:23;;;;;;;;;;;;;;;;;;5036532;28;19924;-29
2022/07/17 00:34:49;;;;;;;;;;;;;;;;;;5036306;28;19983;-29
2022/07/17 00:37:15;;;;;;;;;;;;;;;;;;5035447;28;19913;-29
2022/07/17 00:39:41;;;;;;;;;;;;;;;;;;5035333;28;19915;-29
2022/07/17 00:42:07;;;;;;;;;;;;;;;;;;5036424;28;20270;-30
2022/07/17 00:44:33;;;;;;;;;;;;;;;;;;5036106;28;19913;-30
2022/07/17 00:46:59;;;;;;;;;;;;;;;;;;5036202;28;20329;-30
2022/07/17 00:49:25;;;;;;;;;;;;;;;;;;5035987;28;19916;-30
2022/07/17 00:51:51;;;;;;;;;;;;;;;;;;5035867;28;19921;-29
2022/07/17 00:54:17;;;;;;;;;;;;;;;;;;5036169;28;19912;-30
2022/07/17 00:56:43;;;;;;;;;;;;;;;;;;5035858;28;19909;-29
2022/07/17 00:59:09;;;;;;;;;;;;;;;;;;5035862;28;19920;-29
2022/07/17 01:01:35;;;;;;;;;;;;;;;;;;5035761;28;19913;-29
2022/07/17 01:04:01;;;;;;;;;;;;;;;;;;5035672;28;19909;-30
2022/07/17 01:06:27;;;;;;;;;;;;;;;;;;5035440;28;20260;-29
2022/07/17 01:08:53;;;;;;;;;;;;;;;;;;5035920;28;19937;-30
2022/07/17 01:11:19;;;;;;;;;;;;;;;;;;5035643;28;20275;-29
2022/07/17 01:13:45;;;;;;;;;;;;;;;;;;5035540;28;19913;-28
2022/07/17 01:16:11;;;;;;;;;;;;;;;;;;5035874;28;20363;-29
2022/07/17 01:18:37;;;;;;;;;;;;;;;;;;5035517;28;19920;-29
2022/07/17 01:21:03;;;;;;;;;;;;;;;;;;5035505;28;20360;-30
2022/07/17 01:23:29;;;;;;;;;;;;;;;;;;5035366;28;19910;-29
2022/07/17 01:25:55;;;;;;;;;;;;;;;;;;5035403;28;19913;-30
2022/07/17 01:28:21;;;;;;;;;;;;;;;;;;5035334;28;19913;-29
2022/07/17 01:30:47;;;;;;;;;;;;;;;;;;5035641;28;19931;-30
2022/07/17 01:33:13;;;;;;;;;;;;;;;;;;5035244;28;19970;-29
2022/07/17 01:35:39;;;;;;;;;;;;;;;;;;5035558;28;20264;-29
2022/07/17 01:38:05;;;;;;;;;;;;;;;;;;5035217;28;19916;-30
2022/07/17 01:40:31;;;;;;;;;;;;;;;;;;5035232;28;19917;-30
2022/07/17 01:42:57;;;;;;;;;;;;;;;;;;5035361;28;20011;-30
2022/07/17 01:45:23;;;;;;;;;;;;;;;;;;5035191;28;19952;-29
2022/07/17 01:47:49;;;;;;;;;;;;;;;;;;5034831;28;19917;-28
2022/07/17 01:50:15;;;;;;;;;;;;;;;;;;5035135;28;19987;-29
2022/07/17 01:52:41;;;;;;;;;;;;;;;;;;5035013;28;19920;-29
2022/07/17 01:55:07;;;;;;;;;;;;;;;;;;5035045;28;19913;-29
2022/07/17 01:57:33;;;;;;;;;;;;;;;;;;5035325;28;19916;-28
2022/07/17 01:59:59;;;;;;;;;;;;;;;;;;5035030;28;19913;-29
2022/07/17 02:02:25;;;;;;;;;;;;;;;;;;5034962;28;19924;-29
2022/07/17 02:04:51;;;;;;;;;;;;;;;;;;5034795;28;20043;-29
2022/07/17 02:07:17;;;;;;;;;;;;;;;;;;5035184;28;19924;-29
2022/07/17 02:09:43;;;;;;;;;;;;;;;;;;5034940;28;19910;-29
2022/07/17 02:12:09;;;;;;;;;;;;;;;;;;5035082;28;19922;-29
2022/07/17 02:14:35;;;;;;;;;;;;;;;;;;5034926;28;19913;-30
2022/07/17 02:17:01;;;;;;;;;;;;;;;;;;5034827;28;19940;-29
2022/07/17 02:19:27;;;;;;;;;;;;;;;;;;5035169;28;19914;-29
2022/07/17 02:21:53;;;;;;;;;;;;;;;;;;5034746;28;19923;-30
2022/07/17 02:24:19;;;;;;;;;;;;;;;;;;5034820;28;19984;-30
2022/07/17 02:26:45;;;;;;;;;;;;;;;;;;5034701;28;19917;-29
2022/07/17 02:29:11;;;;;;;;;;;;;;;;;;5035048;28;20256;-30
2022/07/17 02:31:37;;;;;;;;;;;;;;;;;;5034715;28;20375;-29
2022/07/17 02:34:03;;;;;;;;;;;;;;;;;;5034665;28;19916;-30
2022/07/17 02:36:29;;;;;;;;;;;;;;;;;;5034684;28;19944;-30
2022/07/17 02:38:55;;;;;;;;;;;;;;;;;;5034929;28;19913;-29
2022/07/17 02:41:21;;;;;;;;;;;;;;;;;;5034703;28;20301;-30
2022/07/17 02:43:47;;;;;;;;;;;;;;;;;;5034582;28;20002;-29
2022/07/17 02:46:13;;;;;;;;;;;;;;;;;;5034801;28;20017;-29
2022/07/17 02:48:39;;;;;;;;;;;;;;;;;;5034860;28;19915;-30
2022/07/17 02:51:06;;;;;;;;;;;;;;;;;;5034523;28;20291;-29
2022/07/17 02:53:32;;;;;;;;;;;;;;;;;;5034589;28;19909;-29
2022/07/17 02:55:58;;;;;;;;;;;;;;;;;;5034767;28;19917;-29
2022/07/17 02:58:24;;;;;;;;;;;;;;;;;;5034483;28;19979;-30
2022/07/17 03:00:50;;;;;;;;;;;;;;;;;;5038391;28;19967;-29
2022/07/17 03:03:16;;;;;;;;;;;;;;;;;;5037981;28;20371;-30
2022/07/17 03:05:42;;;;;;;;;;;;;;;;;;5037738;28;19925;-29
2022/07/17 03:08:08;;;;;;;;;;;;;;;;;;5037957;28;19910;-29
2022/07/17 03:10:34;;;;;;;;;;;;;;;;;;5038247;28;20224;-29
2022/07/17 03:13:00;;;;;;;;;;;;;;;;;;5037794;28;19975;-29
2022/07/17 03:15:26;;;;;;;;;;;;;;;;;;5038147;28;20221;-30
2022/07/17 03:17:52;;;;;;;;;;;;;;;;;;5037744;28;19921;-29
2022/07/17 03:20:18;;;;;;;;;;;;;;;;;;5037755;28;19909;-29
2022/07/17 03:22:44;;;;;;;;;;;;;;;;;;5037932;28;19933;-29
2022/07/17 03:25:10;;;;;;;;;;;;;;;;;;5037590;28;19940;-29
2022/07/17 03:27:38;;;;;;;;;;;;;;;;;;5037506;28;19913;-33
2022/07/17 03:30:07;;;;;;;;;;;;;;;;;;5037850;28;19984;-29
2022/07/17 03:32:33;;;;;;;;;;;;;;;;;;5037407;28;19912;-29
2022/07/17 03:35:00;;;;;;;;;;;;;;;;;;5037467;28;19919;-28
2022/07/17 03:37:27;;;;;;;;;;;;;;;;;;5037385;28;19952;-29
2022/07/17 03:39:53;;;;;;;;;;;;;;;;;;5037358;28;19909;-29
2022/07/17 03:42:19;;;;;;;;;;;;;;;;;;5037211;28;19921;-30
2022/07/17 03:44:45;;;;;;;;;;;;;;;;;;5037282;28;20329;-29
2022/07/17 03:47:11;;;;;;;;;;;;;;;;;;5037127;28;19924;-30
2022/07/17 03:49:37;;;;;;;;;;;;;;;;;;5037427;28;19913;-29
2022/07/17 03:52:03;;;;;;;;;;;;;;;;;;5037035;28;19920;-29
2022/07/17 03:54:29;;;;;;;;;;;;;;;;;;5037049;28;19909;-29
2022/07/17 03:56:55;;;;;;;;;;;;;;;;;;5037033;28;19967;-29
2022/07/17 03:59:21;;;;;;;;;;;;;;;;;;5036963;28;20260;-30
2022/07/17 04:01:47;;;;;;;;;;;;;;;;;;5035941;28;19913;-29
2022/07/17 04:04:13;;;;;;;;;;;;;;;;;;5037463;28;19921;-29
2022/07/17 04:06:39;;;;;;;;;;;;;;;;;;5036585;28;19927;-29
2022/07/17 04:09:05;;;;;;;;;;;;;;;;;;5035856;28;19935;-29
2022/07/17 04:11:31;;;;;;;;;;;;;;;;;;5036717;28;19913;-30
2022/07/17 04:13:57;;;;;;;;;;;;;;;;;;5035842;28;19932;-29
2022/07/17 04:16:23;;;;;;;;;;;;;;;;;;5035838;28;19924;-29
2022/07/17 04:18:49;;;;;;;;;;;;;;;;;;5036718;28;19909;-30
2022/07/17 04:21:15;;;;;;;;;;;;;;;;;;5036630;28;20256;-29
2022/07/17 04:23:41;;;;;;;;;;;;;;;;;;5035583;28;19909;-29
2022/07/17 04:26:07;;;;;;;;;;;;;;;;;;5036419;28;19917;-29
2022/07/17 04:28:33;;;;;;;;;;;;;;;;;;5036455;28;19920;-29
2022/07/17 04:30:59;;;;;;;;;;;;;;;;;;5036666;28;19913;-29
2022/07/17 04:33:25;;;;;;;;;;;;;;;;;;5036225;28;19919;-29
2022/07/17 04:35:51;;;;;;;;;;;;;;;;;;5036499;28;20280;-29
2022/07/17 04:38:17;;;;;;;;;;;;;;;;;;5036229;28;19909;-28
2022/07/17 04:40:43;;;;;;;;;;;;;;;;;;5036229;28;20359;-29
2022/07/17 04:43:09;;;;;;;;;;;;;;;;;;5036066;28;19912;-30
2022/07/17 04:45:35;;;;;;;;;;;;;;;;;;5036403;28;19916;-30
2022/07/17 04:48:01;;;;;;;;;;;;;;;;;;5035968;28;20272;-30
2022/07/17 04:50:27;;;;;;;;;;;;;;;;;;5035120;28;19909;-29
2022/07/17 04:52:53;;;;;;;;;;;;;;;;;;5035904;28;19913;-29
2022/07/17 04:55:19;;;;;;;;;;;;;;;;;;5035982;28;19932;-29
2022/07/17 04:57:45;;;;;;;;;;;;;;;;;;5035892;28;19920;-29
2022/07/17 05:00:11;;;;;;;;;;;;;;;;;;5035863;28;19913;-29
2022/07/17 05:02:37;;;;;;;;;;;;;;;;;;5035723;28;19924;-29
2022/07/17 05:05:04;;;;;;;;;;;;;;;;;;5035598;28;19925;-29
2022/07/17 05:07:30;;;;;;;;;;;;;;;;;;5035934;28;19913;-29
2022/07/17 05:09:56;;;;;;;;;;;;;;;;;;5035676;28;19916;-29
2022/07/17 05:12:22;;;;;;;;;;;;;;;;;;5035766;28;19917;-30
2022/07/17 05:14:48;;;;;;;;;;;;;;;;;;5035610;28;19970;-27
2022/07/17 05:17:14;;;;;;;;;;;;;;;;;;5035803;28;19913;-30
2022/07/17 05:19:40;;;;;;;;;;;;;;;;;;5035583;28;19920;-29
2022/07/17 05:22:06;;;;;;;;;;;;;;;;;;5035237;28;19913;-30
2022/07/17 05:24:33;;;;;;;;;;;;;;;;;;5035447;28;20450;-30
2022/07/17 05:26:59;;;;;;;;;;;;;;;;;;5035331;28;19917;-30
2022/07/17 05:29:25;;;;;;;;;;;;;;;;;;5034422;28;19920;-30
2022/07/17 05:31:51;;;;;;;;;;;;;;;;;;5035512;28;19953;-29
2022/07/17 05:34:17;;;;;;;;;;;;;;;;;;5035424;28;20367;-30
2022/07/17 05:36:43;;;;;;;;;;;;;;;;;;5035357;28;20256;-29
2022/07/17 05:39:10;;;;;;;;;;;;;;;;;;5035263;28;19913;-29
2022/07/17 05:41:36;;;;;;;;;;;;;;;;;;5035333;28;19913;-30
2022/07/17 05:44:02;;;;;;;;;;;;;;;;;;5035120;28;19933;-29
2022/07/17 05:46:28;;;;;;;;;;;;;;;;;;5035391;28;19949;-30
2022/07/17 05:48:54;;;;;;;;;;;;;;;;;;5035167;28;20359;-29
2022/07/17 05:51:20;;;;;;;;;;;;;;;;;;5035111;28;19945;-29
2022/07/17 05:53:46;;;;;;;;;;;;;;;;;;5034903;28;19909;-30
2022/07/17 05:56:12;;;;;;;;;;;;;;;;;;5035337;28;19956;-29
2022/07/17 05:58:38;;;;;;;;;;;;;;;;;;5035045;28;20002;-29
2022/07/17 06:01:04;;;;;;;;;;;;;;;;;;5035043;28;20400;-29
2022/07/17 06:03:30;;;;;;;;;;;;;;;;;;5033977;28;19953;-29
2022/07/17 06:05:56;;;;;;;;;;;;;;;;;;5034856;28;20017;-29
2022/07/17 06:08:22;;;;;;;;;;;;;;;;;;5034978;28;19948;-30
2022/07/17 06:10:48;;;;;;;;;;;;;;;;;;5035253;28;19913;-30
2022/07/17 06:13:14;;;;;;;;;;;;;;;;;;5034776;28;19967;-29
2022/07/17 06:15:40;;;;;;;;;;;;;;;;;;5034944;28;19963;-29
2022/07/17 06:18:06;;;;;;;;;;;;;;;;;;5035123;28;19920;-30
2022/07/17 06:20:32;;;;;;;;;;;;;;;;;;5034852;28;20016;-30
2022/07/17 06:22:58;;;;;;;;;;;;;;;;;;5035035;28;19967;-29
2022/07/17 06:25:24;;;;;;;;;;;;;;;;;;5034861;28;20256;-29
2022/07/17 06:27:50;;;;;;;;;;;;;;;;;;5035267;28;19990;-29
2022/07/17 06:30:16;;;;;;;;;;;;;;;;;;5034822;28;20332;-30
2022/07/17 06:32:42;;;;;;;;;;;;;;;;;;5034932;28;19917;-29
2022/07/17 06:35:08;;;;;;;;;;;;;;;;;;5037138;28;20344;-29
2022/07/17 06:37:34;;;;;;;;;;;;;;;;;;5038496;28;20386;-29
2022/07/17 06:40:00;;;;;;;;;;;;;;;;;;5038768;28;19909;-29
2022/07/17 06:42:26;;;;;;;;;;;;;;;;;;5038379;28;20259;-29
2022/07/17 06:44:52;;;;;;;;;;;;;;;;;;5038733;28;20394;-28
2022/07/17 06:47:18;;;;;;;;;;;;;;;;;;5038280;28;19925;-29
2022/07/17 06:49:44;;;;;;;;;;;;;;;;;;5038620;28;19979;-28
2022/07/17 06:52:10;;;;;;;;;;;;;;;;;;5038184;28;19913;-29
2022/07/17 06:54:36;;;;;;;;;;;;;;;;;;5038788;28;19909;-29
2022/07/17 06:57:02;;;;;;;;;;;;;;;;;;5038210;28;19921;-30
2022/07/17 06:59:28;;;;;;;;;;;;;;;;;;5037226;28;19909;-29
2022/07/17 07:01:54;;;;;;;;;;;;;;;;;;5037977;28;19999;-29
2022/07/17 07:04:20;;;;;;;;;;;;;;;;;;5038039;28;20005;-29
2022/07/17 07:06:46;;;;;;;;;;;;;;;;;;5037721;28;19921;-29
2022/07/17 07:09:12;;;;;;;;;;;;;;;;;;5037945;28;20356;-29
2022/07/17 07:11:38;;;;;;;;;;;;;;;;;;5037926;28;19924;-30
2022/07/17 07:14:04;;;;;;;;;;;;;;;;;;5038224;28;19909;-30
2022/07/17 07:16:30;;;;;;;;;;;;;;;;;;5037875;28;19913;-30
2022/07/17 07:18:56;;;;;;;;;;;;;;;;;;5037885;28;19970;-29
2022/07/17 07:21:24;;;;;;;;;;;;;;;;;;5036815;28;20012;-29
2022/07/17 07:23:50;;;;;;;;;;;;;;;;;;5037659;28;19909;-29
2022/07/17 07:26:16;;;;;;;;;;;;;;;;;;5037561;28;20268;-29
2022/07/17 07:28:42;;;;;;;;;;;;;;;;;;5037832;28;19917;-29
2022/07/17 07:31:08;;;;;;;;;;;;;;;;;;5037870;28;19975;-29
2022/07/17 07:33:34;;;;;;;;;;;;;;;;;;5037433;28;19913;-29
2022/07/17 07:36:00;;;;;;;;;;;;;;;;;;5037774;28;20317;-29
2022/07/17 07:38:26;;;;;;;;;;;;;;;;;;5037436;28;20003;-29
2022/07/17 07:40:52;;;;;;;;;;;;;;;;;;5037345;28;20327;-29
2022/07/17 07:43:18;;;;;;;;;;;;;;;;;;5037254;28;19921;-29
2022/07/17 07:45:44;;;;;;;;;;;;;;;;;;5036853;28;19909;-29
2022/07/17 07:48:10;;;;;;;;;;;;;;;;;;5037154;28;20226;-29
2022/07/17 07:50:36;;;;;;;;;;;;;;;;;;5037464;28;19931;-30
2022/07/17 07:53:02;;;;;;;;;;;;;;;;;;5037054;28;19917;-30
2022/07/17 07:55:28;;;;;;;;;;;;;;;;;;5037452;28;20052;-29
2022/07/17 07:57:54;;;;;;;;;;;;;;;;;;5037054;28;20372;-30
2022/07/17 08:00:20;;;;;;;;;;;;;;;;;;5037051;28;19963;-29
2022/07/17 08:02:46;;;;;;;;;;;;;;;;;;5036920;28;19924;-29
2022/07/17 08:05:12;;;;;;;;;;;;;;;;;;5036730;28;19917;-29
2022/07/17 08:07:38;;;;;;;;;;;;;;;;;;5037088;28;19952;-29
2022/07/17 08:10:04;;;;;;;;;;;;;;;;;;5036795;28;20260;-28
2022/07/17 08:12:30;;;;;;;;;;;;;;;;;;5036724;28;19909;-29
2022/07/17 08:14:56;;;;;;;;;;;;;;;;;;5036716;28;19991;-29
2022/07/17 08:17:22;;;;;;;;;;;;;;;;;;5036677;28;19920;-30
2022/07/17 08:19:48;;;;;;;;;;;;;;;;;;5036593;28;19925;-43
2022/07/17 08:22:14;;;;;;;;;;;;;;;;;;5036575;28;20307;-30
2022/07/17 08:24:40;;;;;;;;;;;;;;;;;;5036557;28;19921;-29
2022/07/17 08:27:06;;;;;;;;;;;;;;;;;;5036397;28;19971;-28
2022/07/17 08:29:32;;;;;;;;;;;;;;;;;;5036433;28;19983;-29
2022/07/17 08:31:58;;;;;;;;;;;;;;;;;;5036555;28;19913;-29
2022/07/17 08:34:24;;;;;;;;;;;;;;;;;;5036647;28;20340;-29
2022/07/17 08:36:50;;;;;;;;;;;;;;;;;;5035338;28;19913;-29
2022/07/17 08:39:17;;;;;;;;;;;;;;;;;;5036566;28;19909;-30
2022/07/17 08:41:42;;;;;;;;;;;;;;;;;;5035271;28;20252;-29
2022/07/17 08:44:09;;;;;;;;;;;;;;;;;;5036136;28;19916;-29
2022/07/17 08:46:34;;;;;;;;;;;;;;;;;;5036330;28;19925;-29
2022/07/17 08:49:00;;;;;;;;;;;;;;;;;;5036374;28;20295;-29
2022/07/17 08:51:26;;;;;;;;;;;;;;;;;;5036023;28;19913;-29
2022/07/17 08:53:57;;;;;;;;;;;;;;;;;;5035876;28;19919;-29
2022/07/17 08:56:23;;;;;;;;;;;;;;;;;;5035404;28;20336;-29
2022/07/17 08:58:49;;;;;;;;;;;;;;;;;;5036264;28;19952;-29
2022/07/17 09:01:16;;;;;;;;;;;;;;;;;;5035850;28;20344;-29
2022/07/17 09:03:42;;;;;;;;;;;;;;;;;;5034870;28;19913;-29
2022/07/17 09:06:09;;;;;;;;;;;;;;;;;;5035610;28;19996;-29
2022/07/17 09:08:36;;;;;;;;;;;;;;;;;;5035774;28;19917;-29
2022/07/17 09:11:02;;;;;;;;;;;;;;;;;;5035691;28;20013;-29
2022/07/17 09:13:31;;;;;;;;;;;;;;;;;;5035855;28;19940;-29
2022/07/17 09:15:57;;;;;;;;;;;;;;;;;;5035616;28;20326;-29
2022/07/17 09:18:23;;;;;;;;;;;;;;;;;;5035612;28;19956;-29
2022/07/17 09:20:49;;;;;;;;;;;;;;;;;;5035517;28;19949;-29
2022/07/17 09:23:15;;;;;;;;;;;;;;;;;;5035716;28;19916;-29
2022/07/17 09:25:41;;;;;;;;;;;;;;;;;;5035400;28;20340;-30
2022/07/17 09:28:07;;;;;;;;;;;;;;;;;;5035687;28;19913;-29
2022/07/17 09:30:33;;;;;;;;;;;;;;;;;;5035419;28;19921;-29
2022/07/17 09:32:59;;;;;;;;;;;;;;;;;;5035271;28;19920;-29
2022/07/17 09:35:26;;;;;;;;;;;;;;;;;;5035314;28;19913;-29
2022/07/17 09:37:52;;;;;;;;;;;;;;;;;;5035343;28;19914;-29
2022/07/17 09:43:03;;;;;;;;;;;;;;;;;;5035234;28;19921;-29
2022/07/17 09:45:29;;;;;;;;;;;;;;;;;;5035212;28;19920;-29
2022/07/17 09:47:55;;;;;;;;;;;;;;;;;;5035105;28;19913;-29
2022/07/17 09:50:21;;;;;;;;;;;;;;;;;;5035422;28;19944;-29
2022/07/17 09:52:47;;;;;;;;;;;;;;;;;;5035044;28;19913;-29
2022/07/17 09:55:14;;;;;;;;;;;;;;;;;;5035402;28;19996;-29
2022/07/17 09:57:40;;;;;;;;;;;;;;;;;;5035119;28;20004;-28
2022/07/17 10:00:11;;;;;;;;;;;;;;;;;;5035091;28;20383;-29
2022/07/17 10:02:38;;;;;;;;;;;;;;;;;;5035036;28;20356;-29
2022/07/17 10:05:04;;;;;;;;;;;;;;;;;;5034757;28;19932;-29
2022/07/17 10:07:30;;;;;;;;;;;;;;;;;;5035216;28;20303;-30
2022/07/17 10:09:56;;;;;;;;;;;;;;;;;;5038866;28;19913;-29
2022/07/17 10:12:22;;;;;;;;;;;;;;;;;;5038941;28;19967;-30
2022/07/17 10:14:48;;;;;;;;;;;;;;;;;;5039269;28;20046;-31
2022/07/17 10:17:14;;;;;;;;;;;;;;;;;;5038922;28;19963;-29
2022/07/17 10:19:40;;;;;;;;;;;;;;;;;;5038922;28;19988;-29
2022/07/17 10:22:06;;;;;;;;;;;;;;;;;;5038728;28;19932;-29
2022/07/17 10:24:32;;;;;;;;;;;;;;;;;;5037915;28;19924;-30
2022/07/17 10:26:58;;;;;;;;;;;;;;;;;;5039253;28;20011;-29
2022/07/17 10:29:24;;;;;;;;;;;;;;;;;;5039012;28;19952;-29
2022/07/17 10:31:50;;;;;;;;;;;;;;;;;;5038568;28;19940;-29
2022/07/17 10:34:16;;;;;;;;;;;;;;;;;;5038616;28;20008;-30
2022/07/17 10:36:42;;;;;;;;;;;;;;;;;;5038833;28;20025;-29
2022/07/17 10:39:08;;;;;;;;;;;;;;;;;;5038528;28;20355;-29
2022/07/17 10:41:34;;;;;;;;;;;;;;;;;;5038521;28;19909;-29
2022/07/17 10:44:00;;;;;;;;;;;;;;;;;;5038380;28;19913;-29
2022/07/17 10:46:28;;;;;;;;;;;;;;;;;;5038299;28;20372;-29
2022/07/17 10:48:54;;;;;;;;;;;;;;;;;;5038651;28;19909;-29
2022/07/17 10:51:20;;;;;;;;;;;;;;;;;;5038331;28;20012;-30
2022/07/17 10:53:46;;;;;;;;;;;;;;;;;;5038230;28;20398;-30
2022/07/17 10:56:13;;;;;;;;;;;;;;;;;;5038197;28;19917;-29
2022/07/17 10:58:39;;;;;;;;;;;;;;;;;;5038471;28;20049;-29
2022/07/17 11:01:05;;;;;;;;;;;;;;;;;;5038110;28;20429;-29
2022/07/17 11:03:31;;;;;;;;;;;;;;;;;;5038079;28;19948;-29
2022/07/17 11:05:57;;;;;;;;;;;;;;;;;;5037929;28;19987;-29
2022/07/17 11:08:23;;;;;;;;;;;;;;;;;;5037943;28;19917;-29
2022/07/17 11:10:49;;;;;;;;;;;;;;;;;;5038213;28;20295;-29
2022/07/17 11:13:15;;;;;;;;;;;;;;;;;;5037822;28;19936;-29
2022/07/17 11:15:41;;;;;;;;;;;;;;;;;;5037904;28;19909;-29
2022/07/17 11:18:07;;;;;;;;;;;;;;;;;;5037832;28;19913;-29
2022/07/17 11:20:34;;;;;;;;;;;;;;;;;;5037252;28;20317;-30
2022/07/17 11:23:00;;;;;;;;;;;;;;;;;;5037655;28;19909;-29
2022/07/17 11:25:26;;;;;;;;;;;;;;;;;;5037701;28;20407;-29
2022/07/17 11:27:52;;;;;;;;;;;;;;;;;;5037701;28;19917;-29
2022/07/17 11:30:18;;;;;;;;;;;;;;;;;;5037598;28;19913;-29
2022/07/17 11:32:44;;;;;;;;;;;;;;;;;;5037523;28;19964;-29
2022/07/17 11:35:10;;;;;;;;;;;;;;;;;;5037515;28;19913;-29
2022/07/17 11:37:36;;;;;;;;;;;;;;;;;;5037454;28;19924;-29
2022/07/17 11:40:02;;;;;;;;;;;;;;;;;;5037427;28;19917;-29
2022/07/17 11:42:28;;;;;;;;;;;;;;;;;;5037482;28;19952;-30
2022/07/17 11:44:54;;;;;;;;;;;;;;;;;;5037587;28;19940;-29
2022/07/17 11:47:20;;;;;;;;;;;;;;;;;;5037437;28;19963;-29
2022/07/17 11:49:46;;;;;;;;;;;;;;;;;;5037193;28;19919;-30
2022/07/17 11:52:12;;;;;;;;;;;;;;;;;;5037324;28;19913;-29
2022/07/17 11:54:38;;;;;;;;;;;;;;;;;;5037153;28;19909;-29
2022/07/17 11:57:04;;;;;;;;;;;;;;;;;;5037046;28;19917;-30
2022/07/17 11:59:30;;;;;;;;;;;;;;;;;;5037024;28;20295;-28
2022/07/17 12:01:56;;;;;;;;;;;;;;;;;;5036915;28;19967;-30
2022/07/17 12:04:22;;;;;;;;;;;;;;;;;;5036931;28;19917;-29
2022/07/17 12:06:48;;;;;;;;;;;;;;;;;;5036671;28;20353;-29
2022/07/17 12:09:14;;;;;;;;;;;;;;;;;;5035930;28;19913;-29
2022/07/17 12:11:40;;;;;;;;;;;;;;;;;;5036796;28;19963;-29
2022/07/17 12:14:09;;;;;;;;;;;;;;;;;;5035777;28;19917;-29
2022/07/17 12:16:35;;;;;;;;;;;;;;;;;;5036684;28;19913;-30
2022/07/17 12:19:03;;;;;;;;;;;;;;;;;;5036735;28;19920;-29
2022/07/17 12:21:29;;;;;;;;;;;;;;;;;;5037219;28;19924;-29
2022/07/17 12:23:55;;;;;;;;;;;;;;;;;;5036561;28;19917;-29
2022/07/17 12:26:21;;;;;;;;;;;;;;;;;;5036772;28;19917;-29
2022/07/17 12:28:47;;;;;;;;;;;;;;;;;;5036511;28;19913;-29
2022/07/17 12:31:16;;;;;;;;;;;;;;;;;;5036726;28;20225;-30
2022/07/17 12:33:42;;;;;;;;;;;;;;;;;;5036303;28;19913;-29
2022/07/17 12:36:08;;;;;;;;;;;;;;;;;;5036619;28;19913;-29
2022/07/17 12:38:34;;;;;;;;;;;;;;;;;;5036579;28;19909;-30
2022/07/17 12:41:00;;;;;;;;;;;;;;;;;;5036211;28;19913;-29
2022/07/17 12:43:26;;;;;;;;;;;;;;;;;;5036119;28;19909;-29
2022/07/17 12:45:52;;;;;;;;;;;;;;;;;;5036200;28;19916;-30
2022/07/17 12:48:18;;;;;;;;;;;;;;;;;;5036021;28;20337;-29
2022/07/17 12:50:44;;;;;;;;;;;;;;;;;;5036112;28;19948;-30
2022/07/17 12:53:10;;;;;;;;;;;;;;;;;;5035957;28;19913;-29
2022/07/17 12:55:36;;;;;;;;;;;;;;;;;;5036303;28;19916;-29
2022/07/17 12:58:02;;;;;;;;;;;;;;;;;;5036729;28;20366;-29
2022/07/17 13:00:29;;;;;;;;;;;;;;;;;;5035886;28;19909;-29
2022/07/17 13:02:55;;;;;;;;;;;;;;;;;;5035810;28;19921;-29
2022/07/17 13:05:21;;;;;;;;;;;;;;;;;;5035608;28;20254;-29
2022/07/17 13:07:47;;;;;;;;;;;;;;;;;;5035729;28;19913;-29
2022/07/17 13:10:13;;;;;;;;;;;;;;;;;;5036043;28;19917;-29
2022/07/17 13:12:39;;;;;;;;;;;;;;;;;;5035584;28;19916;-29
2022/07/17 13:15:05;;;;;;;;;;;;;;;;;;5035670;28;19928;-29
2022/07/17 13:17:31;;;;;;;;;;;;;;;;;;5035831;28;19939;-29
2022/07/17 13:19:57;;;;;;;;;;;;;;;;;;5035579;28;19917;-28
2022/07/17 13:22:23;;;;;;;;;;;;;;;;;;5035431;28;19917;-29
2022/07/17 13:24:49;;;;;;;;;;;;;;;;;;5034571;28;20322;-29
2022/07/17 13:27:15;;;;;;;;;;;;;;;;;;5034404;28;19971;-29
2022/07/17 13:29:41;;;;;;;;;;;;;;;;;;5035722;28;19909;-30
2022/07/17 13:32:07;;;;;;;;;;;;;;;;;;5035270;28;19913;-29
2022/07/17 13:34:33;;;;;;;;;;;;;;;;;;5034406;28;19913;-29
2022/07/17 13:36:59;;;;;;;;;;;;;;;;;;5035258;28;19967;-30
2022/07/17 13:39:25;;;;;;;;;;;;;;;;;;5035280;28;20256;-30
2022/07/17 13:41:51;;;;;;;;;;;;;;;;;;5035179;28;20328;-29
2022/07/17 13:44:17;;;;;;;;;;;;;;;;;;5034823;28;19920;-29
2022/07/17 13:46:43;;;;;;;;;;;;;;;;;;5035112;28;19927;-28
2022/07/17 13:49:09;;;;;;;;;;;;;;;;;;5035208;28;19913;-29
2022/07/17 13:51:35;;;;;;;;;;;;;;;;;;5035412;28;19919;-29
2022/07/17 13:54:01;;;;;;;;;;;;;;;;;;5035080;28;19920;-29
2022/07/17 13:56:27;;;;;;;;;;;;;;;;;;5035138;28;20241;-30
2022/07/17 13:58:53;;;;;;;;;;;;;;;;;;5035326;28;19913;-29
2022/07/17 14:01:19;;;;;;;;;;;;;;;;;;5035058;28;19913;-29
2022/07/17 14:03:45;;;;;;;;;;;;;;;;;;5034950;28;20367;-29
2022/07/17 14:06:11;;;;;;;;;;;;;;;;;;5034718;28;19921;-29
2022/07/17 14:08:37;;;;;;;;;;;;;;;;;;5034961;28;20260;-29
2022/07/17 14:11:04;;;;;;;;;;;;;;;;;;5035270;28;19992;-29
2022/07/17 14:13:30;;;;;;;;;;;;;;;;;;5034939;28;20017;-29
2022/07/17 14:15:56;;;;;;;;;;;;;;;;;;5034937;28;19957;-29
2022/07/17 14:18:22;;;;;;;;;;;;;;;;;;5035156;28;19932;-29
2022/07/17 14:20:48;;;;;;;;;;;;;;;;;;5034877;28;19913;-30
2022/07/17 14:23:14;;;;;;;;;;;;;;;;;;5033904;28;19919;-29
2022/07/17 14:25:40;;;;;;;;;;;;;;;;;;5033901;28;19913;-29
2022/07/17 14:28:06;;;;;;;;;;;;;;;;;;5034767;28;19917;-29
2022/07/17 14:30:32;;;;;;;;;;;;;;;;;;5034820;28;19924;-29
2022/07/17 14:32:58;;;;;;;;;;;;;;;;;;5034729;28;19970;-29
2022/07/17 14:35:24;;;;;;;;;;;;;;;;;;5034798;28;19916;-29
2022/07/17 14:37:50;;;;;;;;;;;;;;;;;;5035004;28;20387;-29
2022/07/17 14:40:16;;;;;;;;;;;;;;;;;;5033789;28;19963;-29
2022/07/17 14:42:42;;;;;;;;;;;;;;;;;;5034584;28;20275;-29
2022/07/17 14:45:09;;;;;;;;;;;;;;;;;;5035000;28;19916;-30
2022/07/17 14:47:35;;;;;;;;;;;;;;;;;;5034603;28;19917;-29
2022/07/17 14:50:00;;;;;;;;;;;;;;;;;;5034599;28;19917;-30
2022/07/17 14:52:26;;;;;;;;;;;;;;;;;;5034806;28;19910;-29
2022/07/17 14:54:53;;;;;;;;;;;;;;;;;;5035007;28;20379;-29
2022/07/17 14:57:19;;;;;;;;;;;;;;;;;;5038250;28;20253;-29
2022/07/17 14:59:45;;;;;;;;;;;;;;;;;;5038204;28;19920;-29
2022/07/17 15:02:10;;;;;;;;;;;;;;;;;;5038048;28;19976;-29
2022/07/17 15:04:37;;;;;;;;;;;;;;;;;;5038088;28;20332;-29
2022/07/17 15:07:02;;;;;;;;;;;;;;;;;;5037791;28;20447;-29
2022/07/17 15:09:29;;;;;;;;;;;;;;;;;;5038073;28;19959;-29
2022/07/17 15:11:54;;;;;;;;;;;;;;;;;;5038155;28;19924;-29
2022/07/17 15:14:20;;;;;;;;;;;;;;;;;;5037932;28;20440;-29
2022/07/17 15:16:46;;;;;;;;;;;;;;;;;;5037843;28;19913;-29
2022/07/17 15:19:12;;;;;;;;;;;;;;;;;;5038402;28;19913;-29
2022/07/17 15:21:38;;;;;;;;;;;;;;;;;;5038055;28;20256;-30
2022/07/17 15:24:04;;;;;;;;;;;;;;;;;;5037688;28;20043;-30
2022/07/17 15:26:30;;;;;;;;;;;;;;;;;;5036663;28;20012;-29
2022/07/17 15:28:56;;;;;;;;;;;;;;;;;;5037922;28;20336;-29
2022/07/17 15:31:22;;;;;;;;;;;;;;;;;;5037613;28;20276;-29
2022/07/17 15:33:48;;;;;;;;;;;;;;;;;;5037772;28;19910;-29
2022/07/17 15:36:24;;;;;;;;;;;;;;;;;;5037491;28;19913;-29
2022/07/17 15:38:50;;;;;;;;;;;;;;;;;;5037825;28;19909;-29
2022/07/17 15:41:16;;;;;;;;;;;;;;;;;;5037446;28;19913;-28
2022/07/17 15:43:42;;;;;;;;;;;;;;;;;;5037570;28;19917;-29
2022/07/17 15:46:08;;;;;;;;;;;;;;;;;;5037590;28;19995;-29
2022/07/17 15:48:34;;;;;;;;;;;;;;;;;;5037204;28;19921;-29
2022/07/17 15:51:00;;;;;;;;;;;;;;;;;;5037237;28;19945;-29
2022/07/17 15:53:26;;;;;;;;;;;;;;;;;;5037399;28;19917;-30
2022/07/17 15:55:52;;;;;;;;;;;;;;;;;;5037150;28;19952;-29
2022/07/17 15:58:18;;;;;;;;;;;;;;;;;;5037087;28;20008;-29
2022/07/17 16:00:44;;;;;;;;;;;;;;;;;;5037051;28;20363;-30
2022/07/17 16:03:11;;;;;;;;;;;;;;;;;;5036989;28;19909;-29
2022/07/17 16:05:37;;;;;;;;;;;;;;;;;;5036533;28;19990;-29
2022/07/17 16:08:03;;;;;;;;;;;;;;;;;;5036863;28;19921;-29
2022/07/17 16:10:29;;;;;;;;;;;;;;;;;;5037236;28;19913;-29
2022/07/17 16:12:55;;;;;;;;;;;;;;;;;;5035794;28;19963;-29
2022/07/17 16:15:21;;;;;;;;;;;;;;;;;;5036868;28;19920;-29
2022/07/17 16:17:47;;;;;;;;;;;;;;;;;;5036746;28;19999;-29
2022/07/17 16:20:13;;;;;;;;;;;;;;;;;;5036962;28;20372;-29
2022/07/17 16:22:39;;;;;;;;;;;;;;;;;;5036581;28;19921;-29
2022/07/17 16:25:05;;;;;;;;;;;;;;;;;;5036917;28;19909;-29
2022/07/17 16:27:31;;;;;;;;;;;;;;;;;;5036466;28;19974;-29
2022/07/17 16:29:58;;;;;;;;;;;;;;;;;;5036544;28;19913;-29
2022/07/17 16:32:24;;;;;;;;;;;;;;;;;;5036426;28;19932;-30
2022/07/17 16:34:50;;;;;;;;;;;;;;;;;;5035485;28;19913;-29
2022/07/17 16:37:16;;;;;;;;;;;;;;;;;;5036616;28;19976;-29
2022/07/17 16:39:42;;;;;;;;;;;;;;;;;;5036307;28;20457;-30